createdAt,value
2022-11-04T00:00:09.113Z,658.69
2022-11-04T00:00:19.091Z,658.47
2022-11-04T00:00:30.157Z,658.61
2022-11-04T00:00:39.097Z,658.59
2022-11-04T00:00:49.068Z,658.47
2022-11-04T00:00:59.137Z,658.41
2022-11-04T00:01:09.147Z,658.26
2022-11-04T00:01:19.063Z,658.42
2022-11-04T00:01:29.035Z,658.50
2022-11-04T00:01:39.053Z,658.54
2022-11-04T00:01:49.104Z,658.23
2022-11-04T00:01:59.088Z,658.00
2022-11-04T00:02:09.085Z,658.12
2022-11-04T00:02:19.108Z,658.44
2022-11-04T00:02:29.102Z,658.42
2022-11-04T00:02:39.091Z,658.19
2022-11-04T00:02:49.115Z,658.16
2022-11-04T00:02:59.053Z,658.04
2022-11-04T00:03:09.232Z,658.22
2022-11-04T00:03:19.057Z,657.87
2022-11-04T00:03:29.057Z,658.06
2022-11-04T00:03:39.061Z,658.10
2022-11-04T00:03:49.062Z,658.27
2022-11-04T00:03:59.056Z,658.15
2022-11-04T00:04:09.059Z,658.09
2022-11-04T00:04:19.063Z,657.83
2022-11-04T00:04:29.060Z,657.45
2022-11-04T00:04:39.062Z,657.34
2022-11-04T00:04:49.064Z,657.91
2022-11-04T00:04:59.069Z,657.81
2022-11-04T00:05:09.066Z,657.53
2022-11-04T00:05:19.067Z,657.29
2022-11-04T00:05:29.068Z,657.73
2022-11-04T00:05:39.068Z,657.47
2022-11-04T00:05:49.074Z,657.64
2022-11-04T00:05:59.064Z,657.39
2022-11-04T00:06:09.068Z,657.70
2022-11-04T00:06:19.081Z,657.38
2022-11-04T00:06:29.064Z,657.43
2022-11-04T00:06:39.065Z,657.55
2022-11-04T00:06:49.064Z,657.38
2022-11-04T00:06:59.067Z,657.34
2022-11-04T00:07:09.072Z,657.48
2022-11-04T00:07:19.096Z,657.39
2022-11-04T00:07:29.067Z,657.55
2022-11-04T00:07:39.067Z,657.52
2022-11-04T00:07:49.070Z,657.29
2022-11-04T00:07:59.068Z,657.08
2022-11-04T00:08:09.080Z,657.30
2022-11-04T00:08:19.079Z,657.67
2022-11-04T00:08:29.070Z,657.27
2022-11-04T00:08:39.070Z,657.46
2022-11-04T00:08:49.069Z,657.54
2022-11-04T00:08:59.070Z,657.56
2022-11-04T00:09:09.084Z,657.24
2022-11-04T00:09:19.075Z,657.59
2022-11-04T00:09:29.072Z,657.51
2022-11-04T00:09:39.058Z,657.39
2022-11-04T00:09:49.077Z,657.55
2022-11-04T00:09:59.077Z,657.35
2022-11-04T00:10:09.077Z,657.64
2022-11-04T00:10:19.080Z,657.73
2022-11-04T00:10:29.083Z,657.29
2022-11-04T00:10:39.081Z,657.33
2022-11-04T00:10:49.085Z,657.21
2022-11-04T00:10:59.080Z,657.17
2022-11-04T00:11:09.083Z,656.82
2022-11-04T00:11:19.096Z,656.83
2022-11-04T00:11:29.084Z,656.94
2022-11-04T00:11:39.087Z,656.75
2022-11-04T00:11:49.093Z,656.70
2022-11-04T00:11:59.086Z,656.52
2022-11-04T00:12:09.090Z,656.69
2022-11-04T00:12:19.090Z,656.73
2022-11-04T00:12:29.090Z,656.54
2022-11-04T00:12:39.091Z,656.50
2022-11-04T00:12:49.094Z,656.74
2022-11-04T00:12:59.091Z,656.44
2022-11-04T00:13:09.534Z,656.53
2022-11-04T00:13:19.093Z,656.52
2022-11-04T00:13:29.096Z,656.65
2022-11-04T00:13:39.089Z,656.57
2022-11-04T00:13:49.103Z,656.51
2022-11-04T00:13:59.094Z,656.47
2022-11-04T00:14:09.097Z,656.31
2022-11-04T00:14:19.097Z,656.35
2022-11-04T00:14:29.095Z,656.16
2022-11-04T00:14:39.098Z,656.40
2022-11-04T00:14:49.107Z,656.54
2022-11-04T00:14:59.095Z,656.43
2022-11-04T00:15:09.102Z,656.55
2022-11-04T00:15:19.134Z,656.41
2022-11-04T00:15:29.102Z,656.42
2022-11-04T00:15:39.104Z,656.66
2022-11-04T00:15:49.101Z,656.69
2022-11-04T00:15:59.110Z,656.67
2022-11-04T00:16:09.109Z,656.53
2022-11-04T00:16:19.105Z,656.60
2022-11-04T00:16:29.108Z,656.45
2022-11-04T00:16:39.109Z,656.75
2022-11-04T00:16:49.107Z,656.76
2022-11-04T00:16:59.110Z,656.70
2022-11-04T00:17:09.114Z,656.61
2022-11-04T00:17:19.110Z,656.62
2022-11-04T00:17:29.112Z,656.91
2022-11-04T00:17:39.114Z,656.89
2022-11-04T00:17:49.122Z,656.60
2022-11-04T00:17:59.113Z,656.87
2022-11-04T00:18:09.123Z,657.19
2022-11-04T00:18:19.113Z,657.16
2022-11-04T00:18:29.116Z,656.85
2022-11-04T00:18:39.112Z,656.75
2022-11-04T00:18:49.121Z,656.96
2022-11-04T00:18:59.130Z,656.96
2022-11-04T00:19:09.119Z,656.77
2022-11-04T00:19:19.149Z,657.00
2022-11-04T00:19:29.122Z,656.50
2022-11-04T00:19:39.125Z,657.16
2022-11-04T00:19:49.124Z,656.90
2022-11-04T00:19:59.119Z,656.77
2022-11-04T00:20:09.131Z,657.00
2022-11-04T00:20:19.123Z,656.96
2022-11-04T00:20:29.127Z,656.98
2022-11-04T00:20:39.132Z,656.99
2022-11-04T00:20:49.129Z,657.05
2022-11-04T00:20:59.128Z,656.90
2022-11-04T00:21:09.129Z,656.54
2022-11-04T00:21:19.132Z,656.90
2022-11-04T00:21:29.138Z,656.68
2022-11-04T00:21:39.133Z,656.50
2022-11-04T00:21:49.135Z,656.62
2022-11-04T00:21:59.135Z,657.03
2022-11-04T00:22:09.132Z,656.85
2022-11-04T00:22:19.132Z,656.64
2022-11-04T00:22:29.134Z,656.88
2022-11-04T00:22:39.143Z,656.96
2022-11-04T00:22:49.136Z,656.70
2022-11-04T00:22:59.137Z,656.83
2022-11-04T00:23:09.544Z,656.92
2022-11-04T00:23:19.169Z,656.98
2022-11-04T00:23:29.139Z,657.25
2022-11-04T00:23:39.138Z,657.13
2022-11-04T00:23:49.139Z,656.84
2022-11-04T00:23:59.141Z,656.52
2022-11-04T00:24:09.139Z,656.97
2022-11-04T00:24:19.142Z,657.09
2022-11-04T00:24:29.143Z,657.04
2022-11-04T00:24:39.133Z,656.92
2022-11-04T00:24:49.140Z,656.92
2022-11-04T00:24:59.143Z,657.04
2022-11-04T00:25:09.142Z,656.97
2022-11-04T00:25:19.148Z,657.24
2022-11-04T00:25:29.225Z,656.94
2022-11-04T00:25:39.152Z,657.05
2022-11-04T00:25:49.149Z,657.06
2022-11-04T00:25:59.149Z,657.63
2022-11-04T00:26:09.150Z,657.60
2022-11-04T00:26:19.147Z,657.43
2022-11-04T00:26:29.148Z,657.25
2022-11-04T00:26:39.147Z,657.18
2022-11-04T00:26:49.148Z,657.08
2022-11-04T00:26:59.151Z,657.08
2022-11-04T00:27:09.155Z,656.62
2022-11-04T00:27:19.154Z,656.80
2022-11-04T00:27:29.162Z,657.01
2022-11-04T00:27:39.156Z,656.99
2022-11-04T00:27:49.140Z,656.99
2022-11-04T00:27:59.162Z,656.94
2022-11-04T00:28:09.374Z,656.92
2022-11-04T00:28:19.154Z,657.01
2022-11-04T00:28:29.161Z,657.26
2022-11-04T00:28:39.158Z,656.89
2022-11-04T00:28:49.163Z,656.79
2022-11-04T00:28:59.161Z,656.78
2022-11-04T00:29:09.160Z,656.75
2022-11-04T00:29:19.161Z,657.13
2022-11-04T00:29:29.162Z,657.13
2022-11-04T00:29:39.167Z,657.02
2022-11-04T00:29:49.161Z,657.06
2022-11-04T00:29:59.174Z,657.14
2022-11-04T00:30:09.173Z,657.14
2022-11-04T00:30:19.162Z,657.02
2022-11-04T00:30:29.171Z,657.00
2022-11-04T00:30:39.165Z,656.80
2022-11-04T00:30:49.167Z,656.84
2022-11-04T00:30:59.167Z,656.81
2022-11-04T00:31:09.163Z,656.54
2022-11-04T00:31:19.165Z,656.75
2022-11-04T00:31:29.171Z,656.92
2022-11-04T00:31:39.166Z,657.01
2022-11-04T00:31:49.168Z,656.84
2022-11-04T00:31:59.175Z,656.90
2022-11-04T00:32:09.168Z,656.80
2022-11-04T00:32:19.169Z,656.88
2022-11-04T00:32:29.172Z,656.99
2022-11-04T00:32:39.173Z,656.99
2022-11-04T00:32:49.172Z,656.97
2022-11-04T00:32:59.180Z,656.89
2022-11-04T00:33:09.181Z,657.04
2022-11-04T00:33:19.161Z,656.99
2022-11-04T00:33:29.181Z,656.97
2022-11-04T00:33:39.163Z,656.92
2022-11-04T00:33:49.178Z,657.19
2022-11-04T00:33:59.176Z,657.29
2022-11-04T00:34:09.180Z,657.30
2022-11-04T00:34:19.179Z,657.35
2022-11-04T00:34:29.188Z,657.28
2022-11-04T00:34:39.182Z,657.35
2022-11-04T00:34:49.181Z,657.23
2022-11-04T00:34:59.188Z,657.44
2022-11-04T00:35:09.182Z,657.49
2022-11-04T00:35:19.217Z,657.52
2022-11-04T00:35:29.184Z,657.42
2022-11-04T00:35:39.186Z,657.46
2022-11-04T00:35:49.186Z,657.61
2022-11-04T00:35:59.186Z,657.71
2022-11-04T00:36:09.192Z,657.44
2022-11-04T00:36:19.191Z,657.27
2022-11-04T00:36:29.202Z,657.35
2022-11-04T00:36:39.190Z,657.62
2022-11-04T00:36:49.196Z,657.57
2022-11-04T00:36:59.192Z,657.58
2022-11-04T00:37:09.194Z,657.71
2022-11-04T00:37:19.195Z,657.59
2022-11-04T00:37:29.208Z,657.39
2022-11-04T00:37:39.199Z,657.89
2022-11-04T00:37:49.204Z,657.93
2022-11-04T00:37:59.194Z,657.46
2022-11-04T00:38:09.633Z,657.68
2022-11-04T00:38:19.196Z,657.62
2022-11-04T00:38:29.208Z,657.68
2022-11-04T00:38:39.201Z,657.81
2022-11-04T00:38:49.204Z,657.71
2022-11-04T00:38:59.199Z,657.54
2022-11-04T00:39:09.203Z,657.97
2022-11-04T00:39:19.192Z,657.71
2022-11-04T00:39:29.203Z,657.65
2022-11-04T00:39:39.205Z,657.58
2022-11-04T00:39:49.202Z,657.72
2022-11-04T00:39:59.209Z,657.61
2022-11-04T00:40:09.201Z,657.28
2022-11-04T00:40:19.211Z,657.61
2022-11-04T00:40:29.208Z,657.62
2022-11-04T00:40:39.212Z,657.47
2022-11-04T00:40:49.202Z,657.48
2022-11-04T00:40:59.209Z,657.29
2022-11-04T00:41:09.206Z,657.04
2022-11-04T00:41:19.209Z,657.29
2022-11-04T00:41:29.217Z,657.30
2022-11-04T00:41:39.218Z,657.23
2022-11-04T00:41:49.209Z,657.19
2022-11-04T00:41:59.207Z,657.10
2022-11-04T00:42:09.208Z,656.95
2022-11-04T00:42:19.206Z,656.85
2022-11-04T00:42:29.214Z,656.86
2022-11-04T00:42:39.219Z,656.85
2022-11-04T00:42:49.215Z,656.78
2022-11-04T00:42:59.212Z,656.88
2022-11-04T00:43:09.245Z,656.63
2022-11-04T00:43:19.217Z,656.44
2022-11-04T00:43:29.213Z,656.33
2022-11-04T00:43:39.218Z,656.14
2022-11-04T00:43:49.221Z,656.30
2022-11-04T00:43:59.214Z,656.46
2022-11-04T00:44:09.218Z,656.46
2022-11-04T00:44:19.219Z,656.68
2022-11-04T00:44:29.222Z,656.44
2022-11-04T00:44:39.217Z,656.35
2022-11-04T00:44:49.221Z,656.48
2022-11-04T00:44:59.219Z,656.47
2022-11-04T00:45:09.222Z,656.52
2022-11-04T00:45:19.222Z,656.35
2022-11-04T00:45:29.221Z,656.29
2022-11-04T00:45:39.228Z,656.00
2022-11-04T00:45:49.224Z,655.88
2022-11-04T00:45:59.223Z,656.29
2022-11-04T00:46:09.230Z,656.35
2022-11-04T00:46:19.227Z,656.38
2022-11-04T00:46:29.222Z,656.33
2022-11-04T00:46:39.228Z,656.33
2022-11-04T00:46:49.230Z,656.22
2022-11-04T00:46:59.226Z,657.23
2022-11-04T00:47:09.241Z,656.75
2022-11-04T00:47:19.228Z,656.82
2022-11-04T00:47:29.233Z,656.58
2022-11-04T00:47:39.255Z,656.73
2022-11-04T00:47:49.235Z,656.49
2022-11-04T00:47:59.236Z,656.75
2022-11-04T00:48:09.722Z,656.50
2022-11-04T00:48:19.238Z,656.69
2022-11-04T00:48:29.238Z,656.88
2022-11-04T00:48:39.240Z,656.46
2022-11-04T00:48:49.240Z,656.28
2022-11-04T00:48:59.240Z,656.47
2022-11-04T00:49:09.241Z,656.44
2022-11-04T00:49:19.247Z,656.38
2022-11-04T00:49:29.245Z,656.40
2022-11-04T00:49:39.256Z,656.43
2022-11-04T00:49:49.250Z,656.47
2022-11-04T00:49:59.247Z,656.28
2022-11-04T00:50:09.248Z,656.63
2022-11-04T00:50:19.248Z,656.40
2022-11-04T00:50:29.255Z,656.69
2022-11-04T00:50:39.256Z,656.91
2022-11-04T00:50:49.242Z,656.52
2022-11-04T00:50:59.247Z,656.68
2022-11-04T00:51:09.373Z,656.53
2022-11-04T00:51:19.252Z,656.63
2022-11-04T00:51:29.248Z,656.50
2022-11-04T00:51:39.255Z,656.28
2022-11-04T00:51:49.248Z,657.04
2022-11-04T00:51:59.251Z,656.39
2022-11-04T00:52:09.262Z,656.94
2022-11-04T00:52:19.253Z,656.80
2022-11-04T00:52:29.256Z,656.63
2022-11-04T00:52:39.257Z,656.80
2022-11-04T00:52:49.259Z,656.51
2022-11-04T00:52:59.255Z,656.69
2022-11-04T00:53:09.594Z,656.76
2022-11-04T00:53:19.258Z,656.50
2022-11-04T00:53:29.263Z,656.94
2022-11-04T00:53:39.261Z,656.83
2022-11-04T00:53:49.266Z,656.80
2022-11-04T00:53:59.265Z,657.09
2022-11-04T00:54:09.264Z,656.98
2022-11-04T00:54:19.273Z,656.99
2022-11-04T00:54:29.262Z,656.91
2022-11-04T00:54:39.272Z,656.93
2022-11-04T00:54:49.269Z,656.89
2022-11-04T00:54:59.266Z,656.87
2022-11-04T00:55:09.273Z,656.89
2022-11-04T00:55:19.266Z,656.92
2022-11-04T00:55:29.269Z,656.54
2022-11-04T00:55:39.276Z,656.59
2022-11-04T00:55:49.273Z,657.29
2022-11-04T00:55:59.269Z,656.98
2022-11-04T00:56:09.279Z,656.90
2022-11-04T00:56:19.271Z,657.14
2022-11-04T00:56:29.272Z,657.25
2022-11-04T00:56:39.273Z,657.29
2022-11-04T00:56:49.273Z,657.02
2022-11-04T00:56:59.274Z,657.13
2022-11-04T00:57:09.277Z,657.05
2022-11-04T00:57:19.279Z,656.92
2022-11-04T00:57:29.277Z,656.91
2022-11-04T00:57:39.276Z,656.90
2022-11-04T00:57:49.279Z,656.77
2022-11-04T00:57:59.280Z,657.07
2022-11-04T00:58:09.278Z,656.86
2022-11-04T00:58:19.286Z,657.14
2022-11-04T00:58:29.279Z,657.44
2022-11-04T00:58:39.279Z,657.32
2022-11-04T00:58:49.283Z,657.33
2022-11-04T00:58:59.284Z,657.09
2022-11-04T00:59:11.894Z,657.16
2022-11-04T00:59:20.291Z,657.03
2022-11-04T00:59:29.286Z,657.10
2022-11-04T00:59:39.288Z,657.05
2022-11-04T00:59:49.288Z,657.11
2022-11-04T00:59:59.330Z,657.32
2022-11-04T01:00:09.294Z,657.51
2022-11-04T01:00:19.294Z,657.56
2022-11-04T01:00:29.290Z,657.45
2022-11-04T01:00:39.290Z,657.53
2022-11-04T01:00:49.292Z,657.50
2022-11-04T01:00:59.343Z,657.37
2022-11-04T01:01:09.472Z,657.18
2022-11-04T01:01:19.527Z,657.16
2022-11-04T01:01:29.412Z,657.16
2022-11-04T01:01:39.419Z,657.27
2022-11-04T01:01:49.387Z,657.09
2022-11-04T01:01:59.419Z,657.08
2022-11-04T01:02:09.448Z,657.00
2022-11-04T01:02:19.395Z,656.93
2022-11-04T01:02:29.471Z,657.01
2022-11-04T01:02:39.371Z,657.35
2022-11-04T01:02:49.323Z,656.88
2022-11-04T01:02:59.302Z,656.91
2022-11-04T01:03:09.602Z,657.13
2022-11-04T01:03:19.314Z,657.04
2022-11-04T01:03:29.288Z,657.04
2022-11-04T01:03:39.306Z,657.22
2022-11-04T01:03:49.305Z,657.13
2022-11-04T01:03:59.309Z,657.16
2022-11-04T01:04:09.309Z,656.97
2022-11-04T01:04:19.306Z,657.00
2022-11-04T01:04:29.313Z,657.25
2022-11-04T01:04:39.311Z,657.04
2022-11-04T01:04:49.311Z,656.95
2022-11-04T01:04:59.309Z,657.17
2022-11-04T01:05:09.312Z,657.38
2022-11-04T01:05:19.317Z,657.49
2022-11-04T01:05:29.320Z,657.44
2022-11-04T01:05:39.331Z,657.24
2022-11-04T01:05:49.327Z,657.34
2022-11-04T01:05:59.316Z,657.12
2022-11-04T01:06:09.315Z,656.79
2022-11-04T01:06:19.321Z,656.53
2022-11-04T01:06:29.323Z,656.79
2022-11-04T01:06:39.321Z,657.00
2022-11-04T01:06:49.318Z,657.05
2022-11-04T01:06:59.326Z,656.96
2022-11-04T01:07:09.319Z,657.03
2022-11-04T01:07:19.318Z,657.03
2022-11-04T01:07:29.316Z,657.03
2022-11-04T01:07:43.527Z,656.64
2022-11-04T01:07:49.328Z,657.00
2022-11-04T01:07:59.321Z,656.92
2022-11-04T01:08:09.322Z,656.94
2022-11-04T01:08:19.321Z,657.05
2022-11-04T01:08:29.327Z,656.91
2022-11-04T01:08:39.325Z,656.97
2022-11-04T01:08:49.346Z,656.95
2022-11-04T01:08:59.327Z,657.12
2022-11-04T01:09:09.333Z,656.99
2022-11-04T01:09:19.331Z,657.05
2022-11-04T01:09:29.331Z,657.12
2022-11-04T01:09:39.329Z,656.86
2022-11-04T01:09:49.330Z,656.81
2022-11-04T01:09:59.339Z,656.86
2022-11-04T01:10:09.336Z,656.74
2022-11-04T01:10:19.335Z,656.29
2022-11-04T01:10:29.337Z,656.57
2022-11-04T01:10:39.363Z,656.83
2022-11-04T01:10:49.339Z,656.77
2022-11-04T01:10:59.338Z,656.84
2022-11-04T01:11:09.336Z,657.03
2022-11-04T01:11:19.342Z,657.16
2022-11-04T01:11:29.338Z,656.47
2022-11-04T01:11:39.339Z,656.50
2022-11-04T01:11:49.340Z,656.86
2022-11-04T01:11:59.346Z,657.11
2022-11-04T01:12:09.344Z,656.98
2022-11-04T01:12:19.344Z,656.95
2022-11-04T01:12:29.343Z,656.84
2022-11-04T01:12:39.348Z,656.88
2022-11-04T01:12:49.349Z,656.94
2022-11-04T01:12:59.348Z,657.25
2022-11-04T01:13:09.728Z,657.22
2022-11-04T01:13:19.348Z,656.93
2022-11-04T01:13:29.346Z,656.99
2022-11-04T01:13:39.345Z,656.72
2022-11-04T01:13:49.357Z,656.97
2022-11-04T01:13:59.344Z,657.12
2022-11-04T01:14:09.351Z,657.13
2022-11-04T01:14:19.352Z,657.01
2022-11-04T01:14:29.349Z,656.81
2022-11-04T01:14:39.350Z,656.58
2022-11-04T01:14:49.353Z,656.41
2022-11-04T01:14:59.383Z,656.33
2022-11-04T01:15:09.358Z,656.77
2022-11-04T01:15:19.352Z,656.54
2022-11-04T01:15:29.357Z,656.83
2022-11-04T01:15:39.352Z,656.46
2022-11-04T01:15:49.373Z,656.68
2022-11-04T01:15:59.358Z,656.75
2022-11-04T01:16:09.355Z,656.41
2022-11-04T01:16:19.388Z,656.48
2022-11-04T01:16:29.573Z,656.76
2022-11-04T01:16:39.357Z,656.90
2022-11-04T01:16:49.362Z,656.74
2022-11-04T01:16:59.367Z,656.56
2022-11-04T01:17:09.359Z,656.63
2022-11-04T01:17:19.393Z,656.58
2022-11-04T01:17:29.365Z,656.60
2022-11-04T01:17:39.367Z,656.64
2022-11-04T01:17:49.354Z,656.64
2022-11-04T01:17:59.380Z,656.44
2022-11-04T01:18:09.867Z,656.32
2022-11-04T01:18:19.368Z,656.34
2022-11-04T01:18:29.372Z,656.41
2022-11-04T01:18:39.371Z,656.35
2022-11-04T01:18:49.381Z,656.35
2022-11-04T01:18:59.393Z,656.26
2022-11-04T01:19:09.368Z,656.26
2022-11-04T01:19:19.368Z,656.07
2022-11-04T01:19:29.384Z,655.86
2022-11-04T01:19:39.370Z,656.17
2022-11-04T01:19:49.372Z,655.92
2022-11-04T01:19:59.368Z,656.42
2022-11-04T01:20:09.370Z,656.18
2022-11-04T01:20:19.382Z,656.10
2022-11-04T01:20:29.371Z,655.95
2022-11-04T01:20:39.378Z,655.93
2022-11-04T01:20:49.379Z,655.94
2022-11-04T01:20:59.378Z,655.85
2022-11-04T01:21:09.382Z,656.04
2022-11-04T01:21:19.378Z,655.90
2022-11-04T01:21:29.391Z,656.15
2022-11-04T01:21:39.375Z,655.81
2022-11-04T01:21:49.384Z,655.60
2022-11-04T01:21:59.379Z,655.51
2022-11-04T01:22:09.380Z,655.81
2022-11-04T01:22:19.384Z,656.01
2022-11-04T01:22:29.386Z,655.75
2022-11-04T01:22:39.381Z,655.75
2022-11-04T01:22:49.385Z,655.55
2022-11-04T01:22:59.386Z,655.54
2022-11-04T01:23:09.384Z,655.63
2022-11-04T01:23:19.385Z,655.45
2022-11-04T01:23:29.382Z,655.23
2022-11-04T01:23:39.393Z,655.58
2022-11-04T01:23:49.389Z,655.53
2022-11-04T01:23:59.394Z,655.79
2022-11-04T01:24:09.393Z,655.88
2022-11-04T01:24:19.392Z,655.64
2022-11-04T01:24:29.391Z,655.68
2022-11-04T01:24:39.392Z,655.91
2022-11-04T01:24:49.396Z,655.88
2022-11-04T01:24:59.390Z,655.82
2022-11-04T01:25:09.395Z,655.72
2022-11-04T01:25:19.394Z,655.64
2022-11-04T01:25:29.396Z,655.50
2022-11-04T01:25:39.400Z,655.53
2022-11-04T01:25:49.401Z,655.62
2022-11-04T01:25:59.396Z,655.73
2022-11-04T01:26:09.400Z,655.62
2022-11-04T01:26:19.404Z,655.65
2022-11-04T01:26:29.397Z,655.28
2022-11-04T01:26:39.402Z,655.30
2022-11-04T01:26:49.416Z,655.29
2022-11-04T01:26:59.399Z,655.44
2022-11-04T01:27:09.400Z,655.26
2022-11-04T01:27:19.408Z,655.18
2022-11-04T01:27:29.402Z,655.19
2022-11-04T01:27:39.404Z,655.38
2022-11-04T01:27:49.407Z,655.10
2022-11-04T01:27:59.406Z,655.42
2022-11-04T01:28:09.679Z,655.21
2022-11-04T01:28:19.405Z,655.50
2022-11-04T01:28:29.409Z,655.29
2022-11-04T01:28:39.409Z,655.28
2022-11-04T01:28:49.410Z,655.22
2022-11-04T01:28:59.409Z,655.25
2022-11-04T01:29:09.410Z,655.03
2022-11-04T01:29:19.418Z,655.00
2022-11-04T01:29:29.396Z,655.21
2022-11-04T01:29:39.408Z,654.91
2022-11-04T01:29:49.416Z,654.98
2022-11-04T01:29:59.418Z,655.02
2022-11-04T01:30:09.411Z,654.57
2022-11-04T01:30:19.420Z,654.70
2022-11-04T01:30:29.424Z,654.96
2022-11-04T01:30:39.411Z,654.81
2022-11-04T01:30:49.418Z,654.87
2022-11-04T01:30:59.422Z,654.56
2022-11-04T01:31:09.416Z,654.73
2022-11-04T01:31:19.418Z,654.62
2022-11-04T01:31:29.423Z,654.59
2022-11-04T01:31:39.417Z,654.67
2022-11-04T01:31:49.421Z,654.75
2022-11-04T01:31:59.419Z,654.72
2022-11-04T01:32:09.419Z,654.57
2022-11-04T01:32:19.419Z,654.53
2022-11-04T01:32:29.421Z,654.61
2022-11-04T01:32:39.421Z,654.48
2022-11-04T01:32:49.422Z,654.38
2022-11-04T01:32:59.420Z,654.33
2022-11-04T01:33:09.422Z,654.60
2022-11-04T01:33:19.425Z,654.79
2022-11-04T01:33:29.429Z,654.51
2022-11-04T01:33:39.425Z,654.41
2022-11-04T01:33:49.427Z,654.43
2022-11-04T01:33:59.425Z,654.63
2022-11-04T01:34:09.432Z,654.28
2022-11-04T01:34:19.425Z,654.32
2022-11-04T01:34:29.428Z,654.42
2022-11-04T01:34:43.301Z,654.49
2022-11-04T01:34:49.430Z,654.25
2022-11-04T01:34:59.456Z,654.19
2022-11-04T01:35:09.428Z,654.51
2022-11-04T01:35:19.428Z,654.54
2022-11-04T01:35:29.432Z,654.59
2022-11-04T01:35:39.441Z,654.55
2022-11-04T01:35:49.434Z,654.59
2022-11-04T01:35:59.429Z,654.68
2022-11-04T01:36:09.436Z,654.64
2022-11-04T01:36:19.433Z,654.70
2022-11-04T01:36:29.433Z,654.74
2022-11-04T01:36:39.434Z,654.62
2022-11-04T01:36:49.440Z,654.48
2022-11-04T01:36:59.436Z,654.49
2022-11-04T01:37:09.441Z,654.60
2022-11-04T01:37:19.438Z,654.57
2022-11-04T01:37:29.438Z,654.45
2022-11-04T01:37:39.442Z,654.45
2022-11-04T01:37:49.439Z,654.44
2022-11-04T01:37:59.440Z,654.53
2022-11-04T01:38:09.988Z,654.40
2022-11-04T01:38:19.438Z,654.48
2022-11-04T01:38:29.440Z,654.57
2022-11-04T01:38:39.443Z,654.28
2022-11-04T01:38:49.450Z,654.67
2022-11-04T01:38:59.467Z,654.48
2022-11-04T01:39:09.442Z,654.54
2022-11-04T01:39:19.443Z,654.66
2022-11-04T01:39:29.449Z,654.65
2022-11-04T01:39:39.446Z,654.68
2022-11-04T01:39:49.445Z,654.65
2022-11-04T01:39:59.450Z,654.61
2022-11-04T01:40:09.449Z,654.66
2022-11-04T01:40:19.449Z,654.46
2022-11-04T01:40:29.446Z,654.56
2022-11-04T01:40:39.450Z,654.50
2022-11-04T01:40:49.454Z,654.49
2022-11-04T01:40:59.452Z,654.43
2022-11-04T01:41:09.453Z,654.38
2022-11-04T01:41:19.460Z,654.24
2022-11-04T01:41:29.466Z,654.32
2022-11-04T01:41:39.456Z,654.25
2022-11-04T01:41:49.458Z,654.20
2022-11-04T01:41:59.496Z,654.22
2022-11-04T01:42:09.465Z,654.13
2022-11-04T01:42:19.466Z,654.20
2022-11-04T01:42:29.459Z,654.24
2022-11-04T01:42:39.467Z,654.16
2022-11-04T01:42:49.456Z,654.28
2022-11-04T01:42:59.459Z,654.24
2022-11-04T01:43:09.648Z,654.17
2022-11-04T01:43:19.463Z,654.14
2022-11-04T01:43:29.469Z,654.28
2022-11-04T01:43:39.470Z,654.29
2022-11-04T01:43:49.465Z,654.32
2022-11-04T01:43:59.466Z,654.35
2022-11-04T01:44:09.472Z,654.13
2022-11-04T01:44:19.468Z,654.18
2022-11-04T01:44:29.481Z,654.38
2022-11-04T01:44:39.474Z,654.30
2022-11-04T01:44:49.467Z,654.29
2022-11-04T01:44:59.453Z,654.28
2022-11-04T01:45:09.483Z,654.10
2022-11-04T01:45:19.471Z,654.17
2022-11-04T01:45:29.475Z,654.14
2022-11-04T01:45:39.468Z,654.25
2022-11-04T01:45:49.472Z,654.31
2022-11-04T01:45:59.482Z,654.10
2022-11-04T01:46:09.473Z,653.97
2022-11-04T01:46:19.474Z,654.10
2022-11-04T01:46:29.486Z,654.35
2022-11-04T01:46:39.477Z,654.75
2022-11-04T01:46:49.476Z,654.38
2022-11-04T01:46:59.486Z,654.51
2022-11-04T01:47:09.476Z,654.50
2022-11-04T01:47:19.462Z,654.59
2022-11-04T01:47:29.468Z,654.64
2022-11-04T01:47:39.480Z,654.52
2022-11-04T01:47:49.478Z,654.39
2022-11-04T01:47:59.489Z,654.48
2022-11-04T01:48:09.480Z,654.47
2022-11-04T01:48:19.496Z,654.38
2022-11-04T01:48:29.481Z,654.46
2022-11-04T01:48:39.483Z,654.37
2022-11-04T01:48:49.488Z,654.39
2022-11-04T01:48:59.489Z,654.33
2022-11-04T01:49:09.482Z,654.47
2022-11-04T01:49:19.481Z,654.31
2022-11-04T01:49:29.491Z,654.40
2022-11-04T01:49:42.427Z,654.31
2022-11-04T01:49:49.487Z,654.40
2022-11-04T01:49:59.491Z,654.53
2022-11-04T01:50:09.489Z,654.51
2022-11-04T01:50:19.494Z,654.26
2022-11-04T01:50:29.487Z,654.83
2022-11-04T01:50:39.493Z,654.65
2022-11-04T01:50:49.498Z,654.54
2022-11-04T01:50:59.525Z,654.41
2022-11-04T01:51:09.478Z,654.49
2022-11-04T01:51:19.493Z,654.49
2022-11-04T01:51:29.495Z,654.40
2022-11-04T01:51:39.497Z,654.42
2022-11-04T01:51:49.500Z,654.44
2022-11-04T01:51:59.495Z,654.46
2022-11-04T01:52:09.494Z,654.46
2022-11-04T01:52:19.512Z,654.60
2022-11-04T01:52:29.503Z,654.46
2022-11-04T01:52:39.497Z,654.62
2022-11-04T01:52:49.505Z,654.60
2022-11-04T01:52:59.505Z,654.52
2022-11-04T01:53:09.862Z,654.73
2022-11-04T01:53:19.509Z,654.33
2022-11-04T01:53:29.501Z,654.30
2022-11-04T01:53:39.504Z,654.82
2022-11-04T01:53:49.508Z,654.49
2022-11-04T01:53:59.515Z,654.28
2022-11-04T01:54:09.501Z,654.10
2022-11-04T01:54:19.507Z,654.02
2022-11-04T01:54:29.509Z,653.88
2022-11-04T01:54:39.506Z,654.02
2022-11-04T01:54:49.509Z,654.04
2022-11-04T01:54:59.544Z,654.05
2022-11-04T01:55:09.507Z,654.00
2022-11-04T01:55:19.520Z,653.76
2022-11-04T01:55:29.510Z,653.75
2022-11-04T01:55:39.510Z,653.79
2022-11-04T01:55:49.520Z,653.73
2022-11-04T01:55:59.513Z,654.02
2022-11-04T01:56:09.515Z,654.10
2022-11-04T01:56:19.516Z,654.26
2022-11-04T01:56:29.519Z,653.84
2022-11-04T01:56:39.517Z,654.20
2022-11-04T01:56:49.521Z,653.86
2022-11-04T01:56:59.521Z,653.87
2022-11-04T01:57:09.680Z,653.80
2022-11-04T01:57:19.525Z,653.89
2022-11-04T01:57:29.513Z,653.71
2022-11-04T01:57:39.516Z,653.73
2022-11-04T01:57:49.532Z,653.59
2022-11-04T01:57:59.524Z,653.62
2022-11-04T01:58:09.516Z,653.56
2022-11-04T01:58:19.517Z,653.66
2022-11-04T01:58:29.520Z,653.63
2022-11-04T01:58:39.524Z,653.67
2022-11-04T01:58:49.525Z,653.65
2022-11-04T01:58:59.548Z,653.44
2022-11-04T01:59:09.528Z,653.29
2022-11-04T01:59:19.532Z,653.43
2022-11-04T01:59:29.526Z,653.13
2022-11-04T01:59:39.522Z,653.55
2022-11-04T01:59:49.524Z,653.39
2022-11-04T01:59:59.537Z,653.61
2022-11-04T02:00:09.527Z,653.35
2022-11-04T02:00:19.530Z,653.25
2022-11-04T02:00:29.538Z,653.34
2022-11-04T02:00:39.529Z,653.40
2022-11-04T02:00:49.535Z,653.55
2022-11-04T02:00:59.563Z,653.67
2022-11-04T02:01:09.574Z,653.72
2022-11-04T02:01:19.713Z,653.58
2022-11-04T02:01:29.729Z,653.78
2022-11-04T02:01:39.659Z,653.85
2022-11-04T02:01:49.705Z,653.80
2022-11-04T02:01:59.665Z,653.70
2022-11-04T02:02:09.629Z,653.78
2022-11-04T02:02:19.602Z,653.78
2022-11-04T02:02:29.640Z,653.80
2022-11-04T02:02:39.631Z,653.81
2022-11-04T02:02:49.544Z,653.74
2022-11-04T02:02:59.569Z,653.84
2022-11-04T02:03:09.919Z,653.84
2022-11-04T02:03:19.542Z,653.82
2022-11-04T02:03:29.541Z,653.84
2022-11-04T02:03:39.554Z,653.88
2022-11-04T02:03:49.546Z,653.77
2022-11-04T02:03:59.542Z,653.74
2022-11-04T02:04:09.542Z,653.68
2022-11-04T02:04:19.545Z,653.64
2022-11-04T02:04:29.548Z,653.75
2022-11-04T02:04:39.549Z,653.78
2022-11-04T02:04:49.547Z,653.95